Time,TemperatureF,DewpointF,PressureIn,WindDirection,WindDirectionDegrees,WindSpeedMPH,WindSpeedGustMPH,Humidity,HourlyPrecipIn,Conditions,Clouds,dailyrainin,SoftwareType,DateUTC
2013-07-27 00:00:00,70.2,66.1,30.00,ESE,112,0.0,-999.0,87,0.00,,,0.00,open2300 v1.10,2013-07-27 05:00:00,
2013-07-27 00:08:00,70.2,66.4,29.99,ESE,112,0.0,-999.0,88,0.00,,,0.00,open2300 v1.10,2013-07-27 05:08:00,
2013-07-27 00:14:00,70.2,66.4,30.00,ESE,112,0.0,-999.0,88,0.00,,,0.00,open2300 v1.10,2013-07-27 05:14:00,
2013-07-27 00:23:00,70.0,66.2,30.00,ESE,112,0.0,-999.0,88,0.00,,,0.00,open2300 v1.10,2013-07-27 05:23:00,
2013-07-27 00:29:00,70.0,66.2,30.00,ESE,112,0.0,-999.0,88,0.00,,,0.00,open2300 v1.10,2013-07-27 05:29:00,
2013-07-27 00:38:00,70.0,66.2,30.00,ESE,112,0.0,-999.0,88,0.00,,,0.00,open2300 v1.10,2013-07-27 05:38:00,
2013-07-27 00:44:00,70.0,66.2,30.00,ESE,112,0.0,-999.0,88,0.00,,,0.00,open2300 v1.10,2013-07-27 05:44:00,
2013-07-27 00:53:00,70.0,66.2,30.00,ESE,112,0.0,-999.0,88,0.00,,,0.00,open2300 v1.10,2013-07-27 05:53:00,
2013-07-27 01:04:00,70.0,66.2,30.00,ESE,112,0.0,-999.0,88,0.00,,,0.00,open2300 v1.10,2013-07-27 06:04:00,
2013-07-27 01:14:00,70.0,66.2,30.00,ESE,112,0.0,-999.0,88,0.00,,,0.00,open2300 v1.10,2013-07-27 06:14:00,
2013-07-27 01:23:00,70.0,66.2,30.00,ESE,112,0.0,-999.0,88,0.00,,,0.00,open2300 v1.10,2013-07-27 06:23:00,
2013-07-27 01:29:00,70.0,66.2,29.99,ESE,112,0.0,-999.0,88,0.00,,,0.00,open2300 v1.10,2013-07-27 06:29:00,
2013-07-27 01:38:00,69.8,66.1,29.99,ESE,112,0.0,-999.0,88,0.00,,,0.00,open2300 v1.10,2013-07-27 06:38:00,
2013-07-27 01:44:00,69.6,65.9,29.99,ESE,112,0.0,-999.0,88,0.00,,,0.00,open2300 v1.10,2013-07-27 06:44:00,
2013-07-27 01:53:00,69.6,65.9,29.98,ESE,112,0.0,-999.0,88,0.00,,,0.00,open2300 v1.10,2013-07-27 06:53:00,
2013-07-27 02:00:00,69.6,65.9,29.98,ESE,112,0.0,-999.0,88,0.00,,,0.00,open2300 v1.10,2013-07-27 07:00:00,
2013-07-27 02:08:00,69.6,65.9,29.98,ESE,112,0.0,-999.0,88,0.00,,,0.00,open2300 v1.10,2013-07-27 07:08:00,
2013-07-27 02:14:00,69.6,65.9,29.98,ESE,112,0.0,-999.0,88,0.00,,,0.00,open2300 v1.10,2013-07-27 07:14:00,
2013-07-27 02:23:00,69.4,65.7,29.97,ESE,112,0.0,-999.0,88,0.00,,,0.00,open2300 v1.10,2013-07-27 07:23:00,
2013-07-27 02:29:00,69.4,66.0,29.97,ESE,112,0.0,-999.0,89,0.00,,,0.00,open2300 v1.10,2013-07-27 07:29:00,
2013-07-27 02:38:00,69.4,66.0,29.97,ESE,112,0.0,-999.0,89,0.00,,,0.00,open2300 v1.10,2013-07-27 07:38:00,
2013-07-27 02:44:00,69.4,66.0,29.97,ESE,112,0.0,-999.0,89,0.00,,,0.00,open2300 v1.10,2013-07-27 07:44:00,
2013-07-27 02:53:00,69.4,66.0,29.96,ESE,112,0.0,-999.0,89,0.00,,,0.00,open2300 v1.10,2013-07-27 07:53:00,
2013-07-27 03:00:00,69.6,66.2,29.97,ESE,112,0.0,-999.0,89,0.00,,,0.00,open2300 v1.10,2013-07-27 08:00:00,
2013-07-27 03:08:00,69.6,66.2,29.96,ESE,112,0.0,-999.0,89,0.00,,,0.00,open2300 v1.10,2013-07-27 08:08:00,
2013-07-27 03:14:00,69.6,66.2,29.96,ESE,112,0.0,-999.0,89,0.00,,,0.00,open2300 v1.10,2013-07-27 08:14:00,
2013-07-27 03:23:00,69.6,66.2,29.96,ESE,112,0.0,-999.0,89,0.00,,,0.00,open2300 v1.10,2013-07-27 08:23:00,
2013-07-27 03:29:00,69.6,66.2,29.96,ESE,112,0.0,-999.0,89,0.00,,,0.00,open2300 v1.10,2013-07-27 08:29:00,
2013-07-27 03:38:00,69.6,66.2,29.96,ESE,112,0.0,-999.0,89,0.00,,,0.00,open2300 v1.10,2013-07-27 08:38:00,
2013-07-27 03:44:00,69.8,66.4,29.96,ESE,112,0.0,-999.0,89,0.00,,,0.00,open2300 v1.10,2013-07-27 08:44:00,
2013-07-27 03:53:00,70.0,66.6,29.96,ESE,112,0.0,-999.0,89,0.00,,,0.00,open2300 v1.10,2013-07-27 08:53:00,
2013-07-27 04:00:00,70.0,66.6,29.96,ESE,112,0.0,-999.0,89,0.00,,,0.00,open2300 v1.10,2013-07-27 09:00:00,
2013-07-27 04:08:00,70.0,66.6,29.96,ESE,112,0.0,-999.0,89,0.00,,,0.00,open2300 v1.10,2013-07-27 09:08:00,
2013-07-27 04:14:00,70.0,66.6,29.96,ESE,112,0.0,-999.0,89,0.00,,,0.00,open2300 v1.10,2013-07-27 09:14:00,
2013-07-27 04:23:00,70.0,66.6,29.96,ESE,112,0.0,-999.0,89,0.00,,,0.00,open2300 v1.10,2013-07-27 09:23:00,
2013-07-27 04:29:00,70.0,66.6,29.96,ESE,112,0.0,-999.0,89,0.00,,,0.00,open2300 v1.10,2013-07-27 09:29:00,
2013-07-27 04:38:00,70.0,66.6,29.96,ESE,112,0.0,-999.0,89,0.00,,,0.00,open2300 v1.10,2013-07-27 09:38:00,
2013-07-27 04:44:00,70.0,66.6,29.96,ESE,112,0.0,-999.0,89,0.00,,,0.00,open2300 v1.10,2013-07-27 09:44:00,
2013-07-27 04:53:00,70.0,66.6,29.96,ESE,112,0.0,-999.0,89,0.00,,,0.00,open2300 v1.10,2013-07-27 09:53:00,
2013-07-27 05:00:00,69.8,66.4,29.96,ESE,112,0.0,-999.0,89,0.00,,,0.00,open2300 v1.10,2013-07-27 10:00:00,
2013-07-27 05:08:00,69.6,66.2,29.96,ESE,112,0.0,-999.0,89,0.00,,,0.00,open2300 v1.10,2013-07-27 10:08:00,
2013-07-27 05:14:00,69.6,66.2,29.96,ESE,112,0.0,-999.0,89,0.00,,,0.00,open2300 v1.10,2013-07-27 10:14:00,
2013-07-27 05:23:00,69.6,66.2,29.95,East,90,0.0,-999.0,89,0.00,,,0.00,open2300 v1.10,2013-07-27 10:23:00,
2013-07-27 05:29:00,69.6,66.2,29.95,East,90,0.0,-999.0,89,0.00,,,0.00,open2300 v1.10,2013-07-27 10:29:00,
2013-07-27 05:38:00,69.4,66.4,29.96,East,90,0.0,-999.0,90,0.00,,,0.00,open2300 v1.10,2013-07-27 10:38:00,
2013-07-27 05:44:00,69.4,66.4,29.96,East,90,0.0,-999.0,90,0.00,,,0.00,open2300 v1.10,2013-07-27 10:44:00,
2013-07-27 05:53:00,69.4,66.4,29.97,East,90,0.0,-999.0,90,0.00,,,0.00,open2300 v1.10,2013-07-27 10:53:00,
2013-07-27 06:00:00,69.4,66.4,29.98,East,90,0.0,-999.0,90,0.00,,,0.00,open2300 v1.10,2013-07-27 11:00:00,
2013-07-27 06:08:00,69.4,66.4,29.98,East,90,0.0,-999.0,90,0.02,,,0.02,open2300 v1.10,2013-07-27 11:08:00,
2013-07-27 06:14:00,69.3,66.2,29.98,East,90,0.0,-999.0,90,0.02,,,0.02,open2300 v1.10,2013-07-27 11:14:00,
2013-07-27 06:23:00,69.4,66.7,29.98,East,90,0.0,-999.0,91,0.02,,,0.02,open2300 v1.10,2013-07-27 11:23:00,
2013-07-27 06:29:00,69.3,66.5,29.98,East,90,0.0,-999.0,91,0.02,,,0.02,open2300 v1.10,2013-07-27 11:29:00,
2013-07-27 06:38:00,69.3,66.5,29.98,East,90,0.0,-999.0,91,0.02,,,0.02,open2300 v1.10,2013-07-27 11:38:00,
2013-07-27 06:44:00,69.3,66.5,29.98,East,90,0.0,-999.0,91,0.04,,,0.04,open2300 v1.10,2013-07-27 11:44:00,
2013-07-27 06:53:00,69.1,66.3,29.98,East,90,0.0,-999.0,91,0.04,,,0.04,open2300 v1.10,2013-07-27 11:53:00,
2013-07-27 07:00:00,69.1,66.3,29.98,East,90,0.0,-999.0,91,0.04,,,0.04,open2300 v1.10,2013-07-27 12:00:00,
2013-07-27 07:08:00,68.9,66.2,29.98,East,90,0.0,-999.0,91,0.04,,,0.06,open2300 v1.10,2013-07-27 12:08:00,
2013-07-27 07:14:00,68.7,66.0,29.98,East,90,0.0,-999.0,91,0.04,,,0.06,open2300 v1.10,2013-07-27 12:14:00,
2013-07-27 07:23:00,68.2,65.1,29.98,East,90,0.0,-999.0,90,0.04,,,0.06,open2300 v1.10,2013-07-27 12:23:00,
2013-07-27 07:29:00,67.8,64.8,29.98,East,90,0.0,-999.0,90,0.04,,,0.06,open2300 v1.10,2013-07-27 12:29:00,
2013-07-27 07:38:00,67.5,64.4,29.99,East,90,0.0,-999.0,90,0.04,,,0.06,open2300 v1.10,2013-07-27 12:38:00,
2013-07-27 07:44:00,67.3,64.2,29.99,East,90,0.0,-999.0,90,0.04,,,0.08,open2300 v1.10,2013-07-27 12:44:00,
2013-07-27 07:53:00,67.1,64.3,30.00,East,90,0.0,-999.0,91,0.08,,,0.12,open2300 v1.10,2013-07-27 12:53:00,
2013-07-27 08:00:00,66.9,64.2,29.99,East,90,0.0,-999.0,91,0.10,,,0.14,open2300 v1.10,2013-07-27 13:00:00,
2013-07-27 08:08:00,66.9,64.2,30.00,East,90,0.0,-999.0,91,0.08,,,0.14,open2300 v1.10,2013-07-27 13:08:00,
2013-07-27 08:14:00,66.9,64.2,29.99,East,90,0.0,-999.0,91,0.08,,,0.14,open2300 v1.10,2013-07-27 13:14:00,
2013-07-27 08:23:00,67.3,64.5,29.99,East,90,0.0,-999.0,91,0.08,,,0.14,open2300 v1.10,2013-07-27 13:23:00,
2013-07-27 08:29:00,67.5,64.7,29.99,East,90,0.0,-999.0,91,0.08,,,0.14,open2300 v1.10,2013-07-27 13:29:00,
2013-07-27 08:38:00,67.6,64.9,29.99,East,90,0.0,-999.0,91,0.08,,,0.14,open2300 v1.10,2013-07-27 13:38:00,
2013-07-27 08:44:00,67.6,64.9,29.99,East,90,0.0,-999.0,91,0.06,,,0.14,open2300 v1.10,2013-07-27 13:44:00,
2013-07-27 08:53:00,67.6,64.9,29.99,East,90,0.0,-999.0,91,0.02,,,0.14,open2300 v1.10,2013-07-27 13:53:00,
2013-07-27 09:00:00,67.6,64.9,29.99,East,90,0.0,-999.0,91,0.00,,,0.14,open2300 v1.10,2013-07-27 14:00:00,
2013-07-27 09:08:00,67.8,65.1,29.99,East,90,0.0,-999.0,91,0.00,,,0.14,open2300 v1.10,2013-07-27 14:08:00,
2013-07-27 09:14:00,67.8,65.1,29.99,East,90,0.0,-999.0,91,0.00,,,0.14,open2300 v1.10,2013-07-27 14:14:00,
2013-07-27 09:23:00,67.8,65.1,29.98,ESE,112,0.0,-999.0,91,0.02,,,0.16,open2300 v1.10,2013-07-27 14:23:00,
2013-07-27 09:29:00,67.8,65.1,29.99,ESE,112,0.0,-999.0,91,0.02,,,0.16,open2300 v1.10,2013-07-27 14:29:00,
2013-07-27 09:38:00,67.8,65.1,29.99,ESE,112,0.0,-999.0,91,0.02,,,0.16,open2300 v1.10,2013-07-27 14:38:00,
2013-07-27 09:44:00,67.8,65.1,29.99,ESE,112,0.0,-999.0,91,0.02,,,0.16,open2300 v1.10,2013-07-27 14:44:00,
2013-07-27 09:53:00,68.4,65.9,29.99,ESE,112,0.0,-999.0,92,0.02,,,0.16,open2300 v1.10,2013-07-27 14:53:00,
2013-07-27 10:00:00,68.7,66.3,29.99,ESE,112,0.0,-999.0,92,0.02,,,0.16,open2300 v1.10,2013-07-27 15:00:00,
2013-07-27 10:08:00,69.3,66.8,29.99,ESE,112,0.0,-999.0,92,0.02,,,0.16,open2300 v1.10,2013-07-27 15:08:00,
2013-07-27 10:14:00,69.6,66.9,29.99,ESE,112,0.0,-999.0,91,0.00,,,0.16,open2300 v1.10,2013-07-27 15:14:00,
2013-07-27 10:23:00,70.2,67.4,29.99,ESE,112,0.0,-999.0,91,0.00,,,0.16,open2300 v1.10,2013-07-27 15:23:00,
2013-07-27 10:29:00,70.5,67.8,29.99,ESE,112,0.0,-999.0,91,0.00,,,0.16,open2300 v1.10,2013-07-27 15:29:00,
2013-07-27 10:38:00,71.2,68.5,29.99,ESE,112,0.0,-999.0,91,0.00,,,0.16,open2300 v1.10,2013-07-27 15:38:00,
2013-07-27 10:44:00,71.4,68.7,29.99,ESE,112,0.0,-999.0,91,0.00,,,0.16,open2300 v1.10,2013-07-27 15:44:00,
2013-07-27 10:53:00,71.8,69.0,29.99,NE,45,0.0,-999.0,91,0.00,,,0.16,open2300 v1.10,2013-07-27 15:53:00,
2013-07-27 11:00:00,72.1,69.4,29.99,NE,45,0.0,-999.0,91,0.00,,,0.16,open2300 v1.10,2013-07-27 16:00:00,
2013-07-27 11:08:00,72.3,69.6,30.00,NE,45,0.0,-999.0,91,0.00,,,0.16,open2300 v1.10,2013-07-27 16:08:00,
2013-07-27 11:14:00,72.3,69.6,29.99,NE,45,0.0,-999.0,91,0.00,,,0.16,open2300 v1.10,2013-07-27 16:14:00,
2013-07-27 11:23:00,72.7,69.9,29.98,NE,45,0.0,-999.0,91,0.00,,,0.16,open2300 v1.10,2013-07-27 16:23:00,
2013-07-27 11:29:00,73.2,70.5,29.98,NE,45,0.0,-999.0,91,0.00,,,0.16,open2300 v1.10,2013-07-27 16:29:00,
2013-07-27 11:38:00,73.9,70.9,29.98,NE,45,0.0,-999.0,90,0.00,,,0.16,open2300 v1.10,2013-07-27 16:38:00,
2013-07-27 11:44:00,74.1,71.1,29.98,NE,45,0.0,-999.0,90,0.00,,,0.16,open2300 v1.10,2013-07-27 16:44:00,
2013-07-27 11:53:00,74.1,70.7,29.98,NE,45,0.0,-999.0,89,0.00,,,0.16,open2300 v1.10,2013-07-27 16:53:00,
2013-07-27 12:00:00,74.3,70.9,29.98,NE,45,0.0,-999.0,89,0.00,,,0.16,open2300 v1.10,2013-07-27 17:00:00,
2013-07-27 12:08:00,74.8,71.1,29.98,NE,45,0.0,-999.0,88,0.00,,,0.16,open2300 v1.10,2013-07-27 17:08:00,
2013-07-27 12:14:00,75.0,71.3,29.98,NE,45,0.0,-999.0,88,0.00,,,0.16,open2300 v1.10,2013-07-27 17:14:00,
2013-07-27 12:23:00,75.4,71.3,29.98,NE,45,0.0,-999.0,87,0.00,,,0.16,open2300 v1.10,2013-07-27 17:23:00,
2013-07-27 12:29:00,75.7,71.3,29.98,NE,45,0.0,-999.0,86,0.00,,,0.16,open2300 v1.10,2013-07-27 17:29:00,
2013-07-27 12:38:00,77.9,73.0,29.97,NE,45,0.0,-999.0,85,0.00,,,0.16,open2300 v1.10,2013-07-27 17:38:00,
2013-07-27 12:44:00,79.9,73.9,29.97,NE,45,0.0,-999.0,82,0.00,,,0.16,open2300 v1.10,2013-07-27 17:44:00,
2013-07-27 12:53:00,82.0,74.6,29.97,ENE,67,0.0,-999.0,78,0.00,,,0.16,open2300 v1.10,2013-07-27 17:53:00,
2013-07-27 13:00:00,82.9,75.4,29.96,ENE,67,0.0,-999.0,78,0.00,,,0.16,open2300 v1.10,2013-07-27 18:00:00,
2013-07-27 13:08:00,83.7,73.7,29.96,NNE,22,0.0,-999.0,72,0.00,,,0.16,open2300 v1.10,2013-07-27 18:08:00,
2013-07-27 13:14:00,84.2,73.4,29.96,ESE,112,0.0,-999.0,70,0.00,,,0.16,open2300 v1.10,2013-07-27 18:14:00,
2013-07-27 13:23:00,84.9,73.7,29.96,South,180,0.0,-999.0,69,0.00,,,0.16,open2300 v1.10,2013-07-27 18:23:00,
2013-07-27 13:29:00,84.9,73.2,29.96,ENE,67,0.0,-999.0,68,0.00,,,0.16,open2300 v1.10,2013-07-27 18:29:00,
2013-07-27 13:38:00,85.6,73.0,29.96,ENE,67,0.0,-999.0,66,0.00,,,0.16,open2300 v1.10,2013-07-27 18:38:00,
2013-07-27 13:44:00,85.6,72.5,29.95,NNW,337,0.0,-999.0,65,0.00,,,0.16,open2300 v1.10,2013-07-27 18:44:00,
2013-07-27 13:53:00,85.3,72.2,29.95,North,0,0.0,-999.0,65,0.00,,,0.16,open2300 v1.10,2013-07-27 18:53:00,
2013-07-27 14:00:00,84.0,71.0,29.95,SW,225,0.0,-999.0,65,0.00,,,0.16,open2300 v1.10,2013-07-27 19:00:00,
2013-07-27 14:08:00,83.7,70.6,29.95,SE,135,0.0,-999.0,65,0.00,,,0.16,open2300 v1.10,2013-07-27 19:08:00,
2013-07-27 14:14:00,83.8,70.3,29.95,WNW,292,0.0,-999.0,64,0.00,,,0.16,open2300 v1.10,2013-07-27 19:14:00,
2013-07-27 14:23:00,84.4,70.9,29.94,WNW,292,0.0,-999.0,64,0.00,,,0.16,open2300 v1.10,2013-07-27 19:23:00,
2013-07-27 14:29:00,84.0,69.6,29.94,ENE,67,0.0,-999.0,62,0.00,,,0.16,open2300 v1.10,2013-07-27 19:29:00,
2013-07-27 14:38:00,83.8,70.3,29.93,South,180,0.0,-999.0,64,0.00,,,0.16,open2300 v1.10,2013-07-27 19:38:00,
2013-07-27 14:44:00,83.1,69.6,29.93,SE,135,0.0,-999.0,64,0.00,,,0.16,open2300 v1.10,2013-07-27 19:44:00,
2013-07-27 14:53:00,83.1,69.6,29.93,SSE,157,0.0,-999.0,64,0.00,,,0.16,open2300 v1.10,2013-07-27 19:53:00,
2013-07-27 15:00:00,82.9,69.9,29.92,SSE,157,0.0,-999.0,65,0.00,,,0.16,open2300 v1.10,2013-07-27 20:00:00,
2013-07-27 15:08:00,82.9,69.4,29.92,SSE,157,0.0,-999.0,64,0.00,,,0.16,open2300 v1.10,2013-07-27 20:08:00,
2013-07-27 15:14:00,82.8,69.7,29.92,SSE,157,0.0,-999.0,65,0.00,,,0.16,open2300 v1.10,2013-07-27 20:14:00,
2013-07-27 15:23:00,82.8,69.7,29.92,SE,135,0.0,-999.0,65,0.00,,,0.16,open2300 v1.10,2013-07-27 20:23:00,
2013-07-27 15:29:00,82.8,69.7,29.92,ESE,112,0.0,-999.0,65,0.00,,,0.16,open2300 v1.10,2013-07-27 20:29:00,
2013-07-27 15:38:00,82.2,69.2,29.92,ENE,67,0.0,-999.0,65,0.00,,,0.16,open2300 v1.10,2013-07-27 20:38:00,
2013-07-27 15:44:00,82.2,69.2,29.91,SSE,157,0.0,-999.0,65,0.00,,,0.16,open2300 v1.10,2013-07-27 20:44:00,
2013-07-27 15:53:00,82.0,69.5,29.92,SE,135,0.0,-999.0,66,0.00,,,0.16,open2300 v1.10,2013-07-27 20:53:00,
2013-07-27 16:00:00,81.7,69.2,29.92,SE,135,0.0,-999.0,66,0.00,,,0.16,open2300 v1.10,2013-07-27 21:00:00,
2013-07-27 16:08:00,81.3,69.7,29.92,SE,135,0.0,-999.0,68,0.00,,,0.16,open2300 v1.10,2013-07-27 21:08:00,
2013-07-27 16:14:00,81.5,69.9,29.91,SSE,157,0.0,-999.0,68,0.00,,,0.16,open2300 v1.10,2013-07-27 21:14:00,
2013-07-27 16:23:00,82.0,70.8,29.91,North,0,0.0,-999.0,69,0.00,,,0.16,open2300 v1.10,2013-07-27 21:23:00,
2013-07-27 16:29:00,82.0,70.4,29.92,North,0,0.0,-999.0,68,0.00,,,0.16,open2300 v1.10,2013-07-27 21:29:00,
2013-07-27 16:38:00,81.9,70.2,29.91,North,0,0.0,-999.0,68,0.00,,,0.16,open2300 v1.10,2013-07-27 21:38:00,
2013-07-27 16:44:00,81.7,70.5,29.91,North,0,0.0,-999.0,69,0.00,,,0.16,open2300 v1.10,2013-07-27 21:44:00,
2013-07-27 16:53:00,81.3,70.6,29.90,NW,315,0.0,-999.0,70,0.00,,,0.16,open2300 v1.10,2013-07-27 21:53:00,
2013-07-27 17:00:00,81.7,70.5,29.90,NW,315,0.0,-999.0,69,0.00,,,0.16,open2300 v1.10,2013-07-27 22:00:00,
2013-07-27 17:08:00,81.7,70.5,29.91,NW,315,0.0,-999.0,69,0.00,,,0.16,open2300 v1.10,2013-07-27 22:08:00,
2013-07-27 17:14:00,81.5,70.3,29.90,SSW,202,0.0,-999.0,69,0.00,,,0.16,open2300 v1.10,2013-07-27 22:14:00,
2013-07-27 17:23:00,81.1,70.9,29.90,SSW,202,0.0,-999.0,71,0.00,,,0.16,open2300 v1.10,2013-07-27 22:23:00,
2013-07-27 17:29:00,81.1,70.5,29.90,SSW,202,0.0,-999.0,70,0.00,,,0.16,open2300 v1.10,2013-07-27 22:29:00,
2013-07-27 17:38:00,81.3,70.6,29.90,SSW,202,0.0,-999.0,70,0.00,,,0.16,open2300 v1.10,2013-07-27 22:38:00,
2013-07-27 17:44:00,81.3,70.6,29.90,SSW,202,0.0,-999.0,70,0.00,,,0.16,open2300 v1.10,2013-07-27 22:44:00,
2013-07-27 17:53:00,81.1,70.5,29.90,SSW,202,0.0,-999.0,70,0.00,,,0.16,open2300 v1.10,2013-07-27 22:53:00,
2013-07-27 18:00:00,81.0,70.7,29.90,South,180,0.0,-999.0,71,0.00,,,0.16,open2300 v1.10,2013-07-27 23:00:00,
2013-07-27 18:08:00,80.8,70.5,29.90,South,180,0.0,-999.0,71,0.00,,,0.16,open2300 v1.10,2013-07-27 23:08:00,
2013-07-27 18:14:00,80.4,70.2,29.90,South,180,0.0,-999.0,71,0.00,,,0.16,open2300 v1.10,2013-07-27 23:14:00,
2013-07-27 18:23:00,80.2,70.4,29.90,South,180,0.0,-999.0,72,0.00,,,0.16,open2300 v1.10,2013-07-27 23:23:00,
2013-07-27 18:29:00,79.9,70.1,29.90,South,180,0.0,-999.0,72,0.00,,,0.16,open2300 v1.10,2013-07-27 23:29:00,
2013-07-27 18:38:00,79.5,69.7,29.90,South,180,0.0,-999.0,72,0.00,,,0.16,open2300 v1.10,2013-07-27 23:38:00,
2013-07-27 18:44:00,79.5,69.7,29.90,South,180,0.0,-999.0,72,0.00,,,0.16,open2300 v1.10,2013-07-27 23:44:00,
2013-07-27 18:53:00,79.2,69.7,29.90,South,180,0.0,-999.0,73,0.00,,,0.16,open2300 v1.10,2013-07-27 23:53:00,
2013-07-27 19:00:00,78.6,69.2,29.90,South,180,0.0,-999.0,73,0.00,,,0.16,open2300 v1.10,2013-07-28 00:00:00,
2013-07-27 19:08:00,78.4,69.0,29.91,South,180,0.0,-999.0,73,0.00,,,0.16,open2300 v1.10,2013-07-28 00:08:00,
2013-07-27 19:14:00,78.1,69.1,29.91,South,180,0.0,-999.0,74,0.00,,,0.16,open2300 v1.10,2013-07-28 00:14:00,
2013-07-27 19:23:00,77.7,68.7,29.90,South,180,0.0,-999.0,74,0.00,,,0.16,open2300 v1.10,2013-07-28 00:23:00,
2013-07-27 19:29:00,77.5,68.6,29.90,South,180,0.0,-999.0,74,0.00,,,0.16,open2300 v1.10,2013-07-28 00:29:00,
2013-07-27 19:38:00,77.0,68.4,29.91,South,180,0.0,-999.0,75,0.00,,,0.16,open2300 v1.10,2013-07-28 00:38:00,
2013-07-27 19:44:00,76.8,68.3,29.91,South,180,0.0,-999.0,75,0.00,,,0.16,open2300 v1.10,2013-07-28 00:44:00,
2013-07-27 19:53:00,76.6,68.5,29.91,South,180,0.0,-999.0,76,0.00,,,0.16,open2300 v1.10,2013-07-28 00:53:00,
2013-07-27 20:00:00,76.1,68.0,29.91,South,180,0.0,-999.0,76,0.00,,,0.16,open2300 v1.10,2013-07-28 01:00:00,
2013-07-27 20:08:00,75.7,68.0,29.92,South,180,0.0,-999.0,77,0.00,,,0.16,open2300 v1.10,2013-07-28 01:08:00,
2013-07-27 20:14:00,75.4,68.1,29.92,South,180,0.0,-999.0,78,0.00,,,0.16,open2300 v1.10,2013-07-28 01:14:00,
2013-07-27 20:23:00,75.0,67.8,29.92,South,180,0.0,-999.0,78,0.00,,,0.16,open2300 v1.10,2013-07-28 01:23:00,
2013-07-27 20:29:00,74.7,67.8,29.93,South,180,0.0,-999.0,79,0.00,,,0.16,open2300 v1.10,2013-07-28 01:29:00,
2013-07-27 20:38:00,74.3,67.8,29.93,South,180,0.0,-999.0,80,0.00,,,0.16,open2300 v1.10,2013-07-28 01:38:00,
2013-07-27 20:44:00,74.1,67.6,29.93,South,180,0.0,-999.0,80,0.00,,,0.16,open2300 v1.10,2013-07-28 01:44:00,
2013-07-27 20:53:00,73.8,67.6,29.93,South,180,0.0,-999.0,81,0.00,,,0.16,open2300 v1.10,2013-07-28 01:53:00,
2013-07-27 21:00:00,73.2,67.1,29.93,South,180,0.0,-999.0,81,0.00,,,0.16,open2300 v1.10,2013-07-28 02:00:00,
2013-07-27 21:08:00,73.0,67.2,29.93,South,180,0.0,-999.0,82,0.00,,,0.16,open2300 v1.10,2013-07-28 02:08:00,
2013-07-27 21:14:00,72.7,66.9,29.94,South,180,0.0,-999.0,82,0.00,,,0.16,open2300 v1.10,2013-07-28 02:14:00,
2013-07-27 21:23:00,72.5,66.7,29.94,South,180,0.0,-999.0,82,0.00,,,0.16,open2300 v1.10,2013-07-28 02:23:00,
2013-07-27 21:29:00,72.3,66.9,29.94,South,180,0.0,-999.0,83,0.00,,,0.16,open2300 v1.10,2013-07-28 02:29:00,
2013-07-27 21:38:00,72.0,66.5,29.94,South,180,0.0,-999.0,83,0.00,,,0.16,open2300 v1.10,2013-07-28 02:38:00,
2013-07-27 21:44:00,71.8,66.3,29.94,South,180,0.0,-999.0,83,0.00,,,0.16,open2300 v1.10,2013-07-28 02:44:00,
2013-07-27 21:53:00,71.4,66.3,29.94,South,180,0.0,-999.0,84,0.00,,,0.16,open2300 v1.10,2013-07-28 02:53:00,
2013-07-27 22:00:00,71.4,66.3,29.94,South,180,0.0,-999.0,84,0.00,,,0.16,open2300 v1.10,2013-07-28 03:00:00,
2013-07-27 22:08:00,71.2,66.5,29.94,South,180,0.0,-999.0,85,0.00,,,0.16,open2300 v1.10,2013-07-28 03:08:00,
2013-07-27 22:14:00,70.9,66.1,29.94,South,180,0.0,-999.0,85,0.00,,,0.16,open2300 v1.10,2013-07-28 03:14:00,
2013-07-27 22:23:00,70.5,65.8,29.93,South,180,0.0,-999.0,85,0.00,,,0.16,open2300 v1.10,2013-07-28 03:23:00,
2013-07-27 22:29:00,70.3,65.6,29.94,South,180,0.0,-999.0,85,0.00,,,0.16,open2300 v1.10,2013-07-28 03:29:00,
2013-07-27 22:38:00,70.2,65.7,29.94,South,180,0.0,-999.0,86,0.00,,,0.16,open2300 v1.10,2013-07-28 03:38:00,
2013-07-27 22:44:00,70.0,65.6,29.94,South,180,0.0,-999.0,86,0.00,,,0.16,open2300 v1.10,2013-07-28 03:44:00,
2013-07-27 22:53:00,70.0,65.6,29.94,South,180,0.0,-999.0,86,0.00,,,0.16,open2300 v1.10,2013-07-28 03:53:00,
2013-07-27 23:00:00,69.6,65.2,29.93,South,180,0.0,-999.0,86,0.00,,,0.16,open2300 v1.10,2013-07-28 04:00:00,
2013-07-27 23:08:00,69.6,65.2,29.93,South,180,0.0,-999.0,86,0.00,,,0.16,open2300 v1.10,2013-07-28 04:08:00,
2013-07-27 23:14:00,69.4,65.3,29.94,South,180,0.0,-999.0,87,0.00,,,0.16,open2300 v1.10,2013-07-28 04:14:00,
2013-07-27 23:23:00,69.4,65.3,29.94,South,180,0.0,-999.0,87,0.00,,,0.16,open2300 v1.10,2013-07-28 04:23:00,
2013-07-27 23:29:00,69.3,65.2,29.94,South,180,0.0,-999.0,87,0.00,,,0.16,open2300 v1.10,2013-07-28 04:29:00,
2013-07-27 23:38:00,69.1,65.3,29.94,South,180,0.0,-999.0,88,0.00,,,0.16,open2300 v1.10,2013-07-28 04:38:00,
2013-07-27 23:44:00,69.1,65.3,29.94,South,180,0.0,-999.0,88,0.00,,,0.16,open2300 v1.10,2013-07-28 04:44:00,
2013-07-27 23:53:00,69.1,65.3,29.94,South,180,0.0,-999.0,88,0.00,,,0.16,open2300 v1.10,2013-07-28 04:53:00,